ペトロパブロフスク・カムチャツキー の空港の天気 - METARとTAF

ペトロパブロフスク・カムチャツキー空港 ( UHPP / PKC ) - ロシア ペトロパブロフスク・カムチャツキー
飛行場実況気象(Metar)
観測時間10/16 17:30 MAGT (10/16 06:30 UTC)
風向・風速静穏 0m/s
視程10km以上
天気現象
全天の8割程度の雲 雲底高度 1310m
気温7℃
湿度87%
気圧1015hPa
METARUHPP 160630Z 00000MPS 9999 BKN043CB 07/05 Q1015 R34L/190060 NOSIG RMK MT OBSC QFE758/1011
過去の天気等 Google飛行場航空写真 Wunderground天気予報

過去48時間のMETAR

飛行場予報(TAF)
発表時間: 10/16 15:40 MAGT (10/16 04:40 UTC)
予報対象時間: 16日17時 MAGT ~ 17日23時 MAGT
風向・風速北 3m/s 瞬間風速 8m/s
視程10km以上
全天の8割程度の積乱雲 雲底高度 910m
16日17時 MAGT ~ 17日14時 MAGT に一時的に
風向・風速南 3m/s 瞬間風速 8m/s
17日14時 MAGT から
風向・風速南南西 3m/s 瞬間風速 12m/s
視程10km以上
天気現象弱いしゅう雨
全天を覆う積乱雲 雲底高度 460m
17日14時 MAGT ~ 17日23時 MAGT に一時的に
風向・風速南 5m/s 瞬間風速 15m/s
視程1000m
天気現象しゅう雨 もや
全天を覆う雲 鉛直視程 90m
TAF UHPP 160440Z 1606/1712 36003G08MPS 9999 BKN030CB
TEMPO 1606/1703 18003G08MPS
FM170300 20003G12MPS 9999 -SHRA OVC015CB
TEMPO 1703/1712 18005G15MPS 1000 SHRA BR VV003